Latest Weather Observations for Bundaberg

IDQ60801

Issued at 8:02 am EST Monday 31 August 2015 (issued every 30 minutes, with the page automatically refreshed every 10 minutes)

About weather observations | Map of weather stations | Latest weather observations for QLD | Other Formats
Station Details ID: 039128 Name: BUNDABERG AERO Lat: -24.91 Lon: 152.32 Height: 30.82 m
Data from the previous 72 hours. | See also: Recent months at Bundaberg
Date/Time
EST
Temp
°C
App
Temp
°C
Dew
Point
Rel
Hum
%
Delta-T
°C
Wind Press
QNH
hPa
Press
MSL
hPa
Rain
since 9 am
mm
Dir
 
Spd
km/h
Gust
km/h
Spd
kts
Gust
kts
31/08:00am 14.3 9.9 4.6 52 4.5 SW 17 24 9 13 1017.5 1017.4 0.0
31/07:30am 13.3 10.3 5.9 61 3.5 WSW 11 17 6 9 1017.4 1017.3 0.0
31/07:00am 11.6 8.1 5.5 66 2.8 WSW 13 17 7 9 1017.3 1017.2 0.0
31/06:30am 10.5 7.0 5.5 71 2.3 WSW 13 17 7 9 1017.1 1017.0 0.0
31/06:00am 9.7 6.2 5.3 74 2.0 WSW 13 17 7 9 1016.8 1016.7 0.0
31/05:30am 9.3 5.8 5.3 76 1.8 WSW 13 15 7 8 1016.6 1016.5 0.0
31/05:00am 10.2 6.9 4.6 68 2.5 WSW 11 13 6 7 1016.5 1016.4 0.0
31/04:30am 10.8 7.9 4.9 67 2.7 WSW 9 13 5 7 1016.3 1016.2 0.0
31/04:00am 11.2 8.7 4.7 64 2.9 WSW 7 9 4 5 1016.3 1016.2 0.0
31/03:30am 11.4 8.5 4.6 63 3.1 SW 9 13 5 7 1016.4 1016.3 0.0
31/03:00am 11.7 8.4 4.7 62 3.2 SW 11 13 6 7 1016.7 1016.6 0.0
31/02:30am 11.6 8.7 4.8 63 3.1 SW 9 11 5 6 1016.9 1016.8 0.0
31/02:00am 12.2 8.9 4.7 60 3.4 SW 11 17 6 9 1017.2 1017.1 0.0
31/01:30am 12.2 9.3 4.9 61 3.4 SW 9 15 5 8 1017.4 1017.3 0.0
31/01:00am 13.2 10.0 4.9 57 3.8 SW 11 13 6 7 1017.6 1017.5 0.0
31/12:30am 13.6 10.3 4.7 55 4.1 SW 11 15 6 8 1017.7 1017.6 0.0
31/12:00am 14.4 10.8 5.0 53 4.4 SW 13 20 7 11 1017.7 1017.6 0.0
 
Date/Time
EST
Temp
°C
App
Temp
°C
Dew
Point
Rel
Hum
%
Delta-T
°C
Wind Press
QNH
hPa
Press
MSL
hPa
Rain
since 9 am
mm
Dir
 
Spd
km/h
Gust
km/h
Spd
kts
Gust
kts
30/11:30pm 14.1 10.9 5.2 55 4.2 SW 11 15 6 8 1017.6 1017.5 0.0
30/11:00pm 14.7 11.1 5.2 53 4.5 SW 13 19 7 10 1017.6 1017.5 0.0
30/10:30pm 14.7 11.6 5.5 54 4.4 SSW 11 15 6 8 1017.7 1017.6 0.0
30/10:00pm 15.3 12.2 5.5 52 4.7 SSW 11 15 6 8 1017.5 1017.4 0.0
30/09:30pm 15.7 12.3 5.9 52 4.7 SW 13 20 7 11 1017.4 1017.3 0.0
30/09:00pm 15.6 12.3 6.6 55 4.4 SW 13 17 7 9 1017.2 1017.1 0.0
30/08:30pm 15.6 13.0 7.6 59 4.0 SW 11 17 6 9 1016.8 1016.7 0.0
30/08:00pm 16.5 14.3 7.7 56 4.4 SW 9 11 5 6 1016.4 1016.3 0.0
30/07:30pm 16.6 15.0 8.8 60 4.0 SSW 7 11 4 6 1016.1 1016.0 0.0
30/07:00pm 17.2 15.6 8.9 58 4.3 SSW 7 9 4 5 1015.7 1015.6 0.0
30/06:30pm 18.4 16.4 8.7 53 5.0 SSW 9 13 5 7 1015.4 1015.3 0.0
30/06:00pm 18.9 16.6 9.1 53 5.1 SW 11 15 6 8 1015.1 1015.0 0.0
30/05:30pm 20.3 18.4 9.2 49 5.9 SSW 9 15 5 8 1014.9 1014.8 0.0
30/05:00pm 21.7 19.0 8.9 44 6.8 SW 13 17 7 9 1014.4 1014.3 0.0
30/04:30pm 22.3 18.8 8.8 42 7.2 SW 17 22 9 12 1014.3 1014.2 0.0
30/04:00pm 22.5 19.9 9.3 43 7.1 WSW 13 17 7 9 1014.2 1014.1 0.0
30/03:30pm 22.8 19.3 10.3 45 6.9 WSW 19 28 10 15 1014.3 1014.2 0.0
30/03:00pm 23.3 19.7 10.7 45 7.0 WSW 20 32 11 17 1014.4 1014.3 0.0
30/02:30pm 23.0 18.7 10.8 46 6.8 WSW 24 35 13 19 1014.8 1014.7 0.0
30/02:00pm 23.4 19.6 12.4 50 6.3 WSW 24 32 13 17 1015.2 1015.1 0.0
30/01:30pm 22.6 20.0 12.0 51 6.0 WSW 17 28 9 15 1015.4 1015.3 0.0
30/01:00pm 21.2 18.7 12.3 57 5.0 WSW 17 28 9 15 1015.9 1015.8 0.0
30/12:30pm 20.8 18.4 12.5 59 4.7 SW 17 24 9 13 1016.2 1016.1 0.0
30/12:00pm 19.3 17.5 12.1 63 4.0 SW 13 19 7 10 1016.9 1016.8 0.0
30/11:30am 19.1 16.8 13.1 68 3.4 WSW 17 20 9 11 1017.4 1017.3 0.0
30/11:00am 18.5 17.3 14.0 75 2.6 SW 13 19 7 10 1018.0 1017.9 0.0
30/10:30am 16.9 14.8 13.6 81 1.9 WSW 17 24 9 13 1018.3 1018.2 0.0
30/10:13am 16.9 14.9 14.0 83 1.7 SW 17 24 9 13 1018.4 1018.3 0.0
30/10:00am 16.7 14.3 13.8 83 1.6 SW 19 28 10 15 1018.5 1018.4 0.0
30/09:30am 16.6 14.7 14.2 86 1.4 SW 17 22 9 12 1018.6 1018.5 0.0
30/09:00am 16.6 15.3 14.8 89 1.0 SSW 15 22 8 12 1018.6 1018.5 6.0
30/08:30am 16.5 14.8 14.7 89 1.0 SW 17 26 9 14 1018.9 1018.8 6.0
30/08:00am 15.8 14.5 14.7 93 0.6 WSW 15 22 8 12 1018.8 1018.7 6.0
30/07:52am 15.7 14.8 14.9 95 0.5 WSW 13 20 7 11 1018.7 1018.6 6.0
30/07:30am 15.7 15.7 15.1 96 0.3 WSW 9 13 5 7 1018.3 1018.2 6.0
30/07:00am 15.6 16.1 15.0 96 0.3 SSW 6 7 3 4 1017.5 1017.4 6.0
30/06:30am 15.5 16.0 14.9 96 0.3 WSW 6 7 3 4 1017.6 1017.5 5.4
30/06:00am 15.5 15.4 14.9 96 0.3 SW 9 13 5 7 1017.6 1017.5 5.2
30/05:30am 15.6 15.9 15.0 96 0.3 W 7 9 4 5 1017.4 1017.3 4.8
30/05:00am 15.6 17.2 14.8 95 0.5 CALM 0 0 0 0 1016.9 1016.8 4.8
30/04:30am 15.5 17.0 14.7 95 0.5 CALM 0 0 0 0 1016.8 1016.7 4.4
30/04:00am 15.5 17.0 14.7 95 0.5 CALM 0 0 0 0 1016.9 1016.8 4.4
30/03:30am 15.5 17.0 14.7 95 0.5 CALM 0 0 0 0 1017.3 1017.2 4.2
30/03:00am 15.5 17.0 14.7 95 0.5 CALM 0 0 0 0 1017.5 1017.4 3.8
30/02:50am 15.5 17.0 14.7 95 0.5 CALM 0 0 0 0 1017.8 1017.7 3.6
30/02:34am 15.6 17.2 14.8 95 0.5 CALM 0 6 0 3 1018.1 1018.0 3.0
30/02:30am 15.6 16.4 14.8 95 0.5 W 4 7 2 4 1018.1 1018.0 3.0
30/02:00am 15.5 15.7 14.7 95 0.5 SSW 7 11 4 6 1018.1 1018.0 2.0
30/01:30am 15.6 15.1 14.8 95 0.5 SSE 11 13 6 7 1018.6 1018.5 1.4
30/01:00am 15.7 15.5 14.6 93 0.6 S 9 13 5 7 1019.0 1018.9 0.8
30/12:30am 15.7 15.4 14.4 92 0.7 SSW 9 15 5 8 1019.6 1019.6 0.6
30/12:00am 16.0 15.0 14.7 92 0.7 SW 13 20 7 11 1019.9 1019.9 0.4
 
Date/Time
EST
Temp
°C
App
Temp
°C
Dew
Point
Rel
Hum
%
Delta-T
°C
Wind Press
QNH
hPa
Press
MSL
hPa
Rain
since 9 am
mm
Dir
 
Spd
km/h
Gust
km/h
Spd
kts
Gust
kts
29/11:30pm 16.3 15.3 14.7 90 0.9 SW 13 19 7 10 1020.0 1020.0 0.0
29/11:00pm 16.5 15.2 14.7 89 1.0 SW 15 20 8 11 1020.0 1020.0 0.0
29/10:30pm 16.8 15.9 14.8 88 1.2 SW 13 19 7 10 1020.0 1020.0 0.0
29/10:00pm 17.0 16.5 14.8 87 1.3 SSW 11 17 6 9 1019.8 1019.8 0.0
29/09:30pm 17.0 16.6 15.3 90 1.0 S 11 17 6 9 1019.8 1019.8 0.0
29/09:00pm 16.9 16.3 15.6 92 0.8 S 13 20 7 11 1019.7 1019.7 0.0
29/08:30pm 17.0 15.9 15.3 90 1.0 S 15 22 8 12 1019.6 1019.6 0.0
29/08:00pm 17.6 15.5 15.2 86 1.4 SSW 20 32 11 17 1019.5 1019.5 0.0
29/07:30pm 20.0 20.8 17.2 84 1.7 SW 9 13 5 7 1019.3 1019.3 0.0
29/07:00pm 20.1 21.3 17.3 84 1.7 WNW 7 9 4 5 1018.9 1018.8 0.0
29/06:30pm 20.7 21.5 17.3 81 2.1 N 9 13 5 7 1018.3 1018.2 0.0
29/06:00pm 20.9 21.1 16.7 77 2.5 NNE 11 15 6 8 1018.2 1018.1 0.0
29/05:30pm 21.2 20.9 15.5 70 3.4 NE 11 15 6 8 1017.6 1017.5 0.0
29/05:00pm 22.1 21.1 15.5 66 3.9 NE 15 19 8 10 1017.1 1017.0 0.0
29/04:30pm 23.2 21.8 15.5 62 4.6 NE 17 20 9 11 1017.1 1017.0 0.0
29/04:00pm 23.9 21.9 15.4 59 5.1 NNE 20 28 11 15 1017.0 1016.9 0.0
29/03:30pm 23.5 21.8 14.8 58 5.2 NNE 17 24 9 13 1017.3 1017.2 0.0
29/03:00pm 24.5 23.9 15.7 58 5.3 NE 13 22 7 12 1017.7 1017.6 0.0
29/02:30pm 24.1 23.4 15.3 58 5.3 NE 13 19 7 10 1018.1 1018.0 0.0
29/02:00pm 24.7 24.0 15.3 56 5.7 ENE 13 20 7 11 1018.4 1018.3 0.0
29/01:30pm 24.0 24.0 15.2 58 5.3 ENE 9 15 5 8 1019.0 1018.9 0.0
29/01:00pm 23.4 23.8 15.2 60 4.9 ENE 7 13 4 7 1019.5 1019.5 0.0
29/12:30pm 23.4 23.1 15.5 61 4.8 E 11 15 6 8 1020.0 1020.0 0.0
29/12:00pm 24.0 23.9 15.0 57 5.4 E 9 15 5 8 1020.4 1020.4 0.0
29/11:30am 23.3 22.1 15.1 60 4.9 E 15 24 8 13 1020.9 1020.9 0.0
29/11:00am 22.9 21.9 15.7 64 4.3 ENE 15 19 8 10 1021.5 1021.5 0.0
29/10:30am 23.1 23.5 15.2 61 4.7 SW 7 13 4 7 1021.7 1021.7 0.0
29/10:00am 22.3 21.2 15.4 65 4.1 SSE 15 22 8 12 1022.0 1022.0 0.0
29/09:30am 21.3 19.7 14.9 67 3.8 SE 17 20 9 11 1022.2 1022.2 0.0
29/09:00am 20.1 20.4 14.9 72 3.0 S 7 11 4 6 1022.4 1022.4 1.0
29/08:30am 18.5 17.8 14.2 76 2.5 SSE 11 15 6 8 1022.2 1022.2 1.0
29/08:00am 17.7 17.4 14.4 81 1.9 SSE 9 13 5 7 1021.8 1021.8 1.0
29/07:30am 17.4 17.3 14.9 85 1.4 SSE 9 15 5 8 1021.8 1021.8 1.0
29/07:00am 17.0 16.5 15.0 88 1.2 SSE 11 15 6 8 1021.6 1021.6 1.0
29/06:30am 16.8 16.8 15.2 90 0.9 SSE 9 13 5 7 1021.3 1021.3 1.0
29/06:00am 16.6 16.6 15.1 91 0.9 SSE 9 13 5 7 1020.8 1020.8 1.0
29/05:30am 17.0 16.6 15.2 89 1.0 SSE 11 15 6 8 1020.6 1020.6 1.0
29/05:00am 17.3 16.9 15.3 88 1.2 SSE 11 15 6 8 1020.2 1020.2 1.0
29/04:30am 17.7 17.2 15.9 89 1.1 SSE 13 17 7 9 1019.9 1019.9 1.0
29/04:00am 17.7 17.2 15.9 89 1.1 SSE 13 19 7 10 1020.3 1020.3 0.8
29/03:30am 18.0 18.5 16.5 91 0.9 NNW 9 13 5 7 1020.6 1020.6 0.8
29/03:00am 17.8 18.1 16.1 90 1.0 SSE 9 13 5 7 1020.5 1020.5 0.8
29/02:30am 17.9 17.9 16.2 90 1.0 S 11 20 6 11 1020.7 1020.7 0.8
29/02:00am 18.4 19.3 16.2 87 1.3 S 6 9 3 5 1021.1 1021.1 0.0
29/01:30am 18.3 18.0 16.5 89 1.1 SSE 13 15 7 8 1021.2 1021.2 0.0
29/01:00am 18.4 18.9 16.6 89 1.1 SSE 9 15 5 8 1021.1 1021.1 0.0
29/12:30am 18.6 18.8 16.8 89 1.1 SSE 11 17 6 9 1021.4 1021.4 0.0
29/12:00am 19.0 19.8 17.3 90 1.0 SSE 9 13 5 7 1021.5 1021.5 0.0
 
Date/Time
EST
Temp
°C
App
Temp
°C
Dew
Point
Rel
Hum
%
Delta-T
°C
Wind Press
QNH
hPa
Press
MSL
hPa
Rain
since 9 am
mm
Dir
 
Spd
km/h
Gust
km/h
Spd
kts
Gust
kts
28/11:30pm 19.2 20.2 17.7 91 0.9 SSE 9 13 5 7 1021.3 1021.3 0.0
28/11:00pm 19.5 20.5 17.8 90 1.0 SSE 9 13 5 7 1021.2 1021.2 0.0
28/10:30pm 19.7 21.1 17.8 89 1.2 S 7 11 4 6 1021.3 1021.3 0.0
28/10:00pm 19.6 20.9 17.6 88 1.2 S 7 9 4 5 1021.2 1021.2 0.0
28/09:30pm 19.8 20.4 17.6 87 1.4 SSE 11 13 6 7 1021.0 1021.0 0.0
28/09:00pm 19.7 21.8 17.3 86 1.5 NNE 2 7 1 4 1020.9 1020.9 0.0
28/08:30pm 20.4 23.1 17.8 85 1.6 CALM 0 0 0 0 1020.9 1020.9 0.0
28/08:00pm 20.3 21.6 17.5 84 1.7 NNW 7 9 4 5 1020.7 1020.7 0.0
28/07:30pm 20.9 22.0 17.9 83 1.9 N 9 13 5 7 1020.3 1020.3 0.0
28/07:00pm 20.8 21.4 17.6 82 2.0 NNE 11 15 6 8 1019.7 1019.7 0.0
28/06:30pm 21.3 21.4 17.5 79 2.3 N 13 17 7 9 1019.4 1019.4 0.0
28/06:00pm 21.3 21.0 17.3 78 2.5 N 15 19 8 10 1019.2 1019.2 0.0
28/05:30pm 21.7 20.8 16.9 74 2.9 NNE 17 20 9 11 1018.4 1018.3 0.0
28/05:00pm 22.6 20.7 15.7 65 4.1 NNE 20 24 11 13 1018.2 1018.1 0.0
28/04:30pm 23.8 21.7 15.3 59 5.1 NNE 20 24 11 13 1017.8 1017.7 0.0
28/04:00pm 24.3 23.4 15.8 59 5.1 NNE 15 20 8 11 1017.6 1017.5 0.0
28/03:30pm 25.4 24.6 16.0 56 5.7 NNE 15 19 8 10 1017.6 1017.5 0.0
28/03:00pm 25.5 23.9 16.1 56 5.7 N 19 28 10 15 1017.8 1017.7 0.0
28/02:30pm 24.2 22.9 15.9 59 5.0 N 17 22 9 12 1018.1 1018.0 0.0
28/02:00pm 24.5 23.3 16.0 59 5.2 N 17 22 9 12 1018.4 1018.3 0.0
28/01:30pm 24.4 22.5 15.3 57 5.5 N 19 26 10 14 1018.5 1018.4 0.0
28/01:00pm 24.8 23.2 16.0 58 5.4 N 19 26 10 14 1019.0 1018.9 0.0
28/12:30pm 25.2 24.4 15.2 54 6.0 NW 13 17 7 9 1019.5 1019.5 0.0
28/12:00pm 25.3 25.3 15.3 54 6.0 WNW 9 15 5 8 1020.0 1020.0 0.0
28/11:30am 24.8 25.5 16.2 58 5.3 NW 7 13 4 7 1020.6 1020.6 0.0
28/11:00am 24.1 23.5 15.6 59 5.1 WNW 13 17 7 9 1021.2 1021.2 0.0
28/10:30am 23.6 23.5 15.9 62 4.7 NW 11 22 6 12 1021.6 1021.6 0.0
28/10:00am 22.7 22.6 16.0 66 4.0 NW 11 19 6 10 1021.9 1021.9 0.0
28/09:30am 22.5 22.8 17.0 71 3.4 W 11 19 6 10 1022.1 1022.1 0.0
28/09:00am 21.1 21.4 17.1 78 2.4 WNW 11 15 6 8 1022.2 1022.2 0.0
28/08:30am 20.2 20.7 17.4 84 1.7 W 11 13 6 7 1022.1 1022.1 0.0

Other Formats:

Comma delimited format used in spreadsheet applications
http://www.bom.gov.au/fwo/IDQ60801/IDQ60801.94387.axf

JavaScript Object Notation format (JSON) in row-major order
http://www.bom.gov.au/fwo/IDQ60801/IDQ60801.94387.json